Time;durP1;ratioP1;P1;durP2;ratioP2;P2;SDS_P1;SDS_P2;PMS_P1;PMS_P2;Temp;Humidity;BMP_temperature;BMP_pressure;BME280_temperature;BME280_humidity;BME280_pressure;Samples;Min_cycle;Max_cycle;Signal;HPM_P1;HPM_P2
2021/07/19 00:00:48;;;;;;;8.27;7.57;;;17.00;93.60;;;;;;4991554;28;20463;-77
2021/07/19 00:03:14;;;;;;;7.57;6.60;;;17.00;94.40;;;;;;4990316;28;20943;-77
2021/07/19 00:05:43;;;;;;;9.20;7.93;;;16.90;94.50;;;;;;4989181;28;21381;-77
2021/07/19 00:08:09;;;;;;;10.23;7.70;;;16.90;95.20;;;;;;4984374;28;20447;-76
2021/07/19 00:10:36;;;;;;;7.50;6.70;;;17.00;95.40;;;;;;4986790;28;20449;-77
2021/07/19 00:13:04;;;;;;;7.57;6.87;;;16.90;94.70;;;;;;4988275;28;20464;-76
2021/07/19 00:15:31;;;;;;;8.93;8.13;;;16.90;95.50;;;;;;4987665;28;20448;-77
2021/07/19 00:17:58;;;;;;;9.00;8.10;;;17.00;95.20;;;;;;4987388;28;20452;-78
2021/07/19 00:20:25;;;;;;;8.73;7.10;;;17.10;94.60;;;;;;4988103;28;20467;-78
2021/07/19 00:22:54;;;;;;;8.67;7.27;;;17.10;94.20;;;;;;4985274;28;20458;-78
2021/07/19 00:25:21;;;;;;;8.90;8.00;;;17.00;94.80;;;;;;4987567;28;20941;-77
2021/07/19 00:27:53;;;;;;;7.90;7.20;;;16.80;95.40;;;;;;4987543;28;20457;-77
2021/07/19 00:30:20;;;;;;;8.53;7.70;;;16.80;96.00;;;;;;4987977;28;20972;-78
2021/07/19 00:32:47;;;;;;;8.83;7.63;;;16.80;95.80;;;;;;4985903;28;20473;-77
2021/07/19 00:35:14;;;;;;;8.40;7.60;;;16.70;96.50;;;;;;4995008;28;20455;-77
2021/07/19 00:37:41;;;;;;;10.20;8.10;;;16.60;96.80;;;;;;4988362;28;20451;-79
2021/07/19 00:40:11;;;;;;;8.30;7.37;;;16.60;98.10;;;;;;4987988;28;21276;-77
2021/07/19 00:42:40;;;;;;;7.83;7.13;;;16.50;98.50;;;;;;4990920;28;20453;-77
2021/07/19 00:45:10;;;;;;;8.80;8.00;;;16.50;98.50;;;;;;4992021;28;20439;-78
2021/07/19 00:47:36;;;;;;;8.67;7.80;;;16.40;99.00;;;;;;4990641;28;20458;-75
2021/07/19 00:50:04;;;;;;;8.23;7.50;;;16.50;99.20;;;;;;4989129;28;20464;-77
2021/07/19 00:52:32;;;;;;;10.90;8.03;;;16.40;99.40;;;;;;4990224;28;20467;-77
2021/07/19 00:54:59;;;;;;;9.97;7.67;;;16.30;99.80;;;;;;4993022;28;20819;-76
2021/07/19 00:57:28;;;;;;;8.80;8.00;;;16.30;99.90;;;;;;4991152;28;20522;-77
2021/07/19 00:59:56;;;;;;;8.60;7.67;;;16.30;99.90;;;;;;4985408;28;20460;-77
2021/07/19 01:02:23;;;;;;;10.10;7.80;;;16.30;99.90;;;;;;4988558;28;20472;-76
2021/07/19 01:04:52;;;;;;;8.20;7.50;;;16.20;99.90;;;;;;4989958;28;20445;-76
2021/07/19 01:07:21;;;;;;;8.73;8.03;;;16.20;99.90;;;;;;4988116;28;20449;-76
2021/07/19 01:09:49;;;;;;;13.13;7.70;;;16.10;99.90;;;;;;4988352;28;20452;-76
2021/07/19 01:12:18;;;;;;;8.77;8.03;;;16.10;99.90;;;;;;4989327;28;20477;-77
2021/07/19 01:14:46;;;;;;;8.50;7.53;;;16.10;99.90;;;;;;4996949;28;20442;-77
2021/07/19 01:17:13;;;;;;;8.20;7.40;;;16.10;99.90;;;;;;4994364;28;20452;-76
2021/07/19 01:19:45;;;;;;;8.97;8.10;;;16.10;99.90;;;;;;4987135;28;20532;-76
2021/07/19 01:22:51;;;;;;;8.07;7.17;;;16.10;99.90;;;;;;4982915;28;20911;-76
2021/07/19 01:25:33;;;;;;;8.63;7.73;;;16.00;99.90;;;;;;4990810;28;20446;-77
2021/07/19 01:28:10;;;;;;;8.50;7.60;;;15.90;99.90;;;;;;4980638;28;20438;-77
2021/07/19 01:30:42;;;;;;;9.37;8.57;;;15.90;99.90;;;;;;4989193;28;20565;-76
2021/07/19 01:33:12;;;;;;;9.93;8.43;;;16.10;99.90;;;;;;4981767;28;20834;-77
2021/07/19 01:35:42;;;;;;;9.70;8.77;;;16.20;99.90;;;;;;4990573;28;20450;-76
2021/07/19 01:38:11;;;;;;;10.73;9.10;;;16.20;99.90;;;;;;4990811;28;20448;-78
2021/07/19 01:40:39;;;;;;;10.57;9.63;;;16.30;99.90;;;;;;4990780;28;20465;-78
2021/07/19 01:43:07;;;;;;;9.70;8.70;;;16.30;99.90;;;;;;4989046;28;20474;-75
2021/07/19 01:45:35;;;;;;;10.00;9.10;;;16.30;99.90;;;;;;4991330;28;20976;-76
2021/07/19 01:48:05;;;;;;;11.13;8.87;;;16.30;99.90;;;;;;4986775;28;20460;-76
2021/07/19 01:50:32;;;;;;;10.17;9.17;;;16.30;99.90;;;;;;4991107;28;20476;-80
2021/07/19 01:53:00;;;;;;;9.53;8.60;;;16.20;99.90;;;;;;4985482;28;20962;-77
2021/07/19 01:55:28;;;;;;;8.93;8.13;;;16.20;99.90;;;;;;4990062;28;20437;-78
2021/07/19 01:57:55;;;;;;;9.90;8.67;;;16.10;99.90;;;;;;4988496;28;20451;-76
2021/07/19 02:00:22;;;;;;;10.20;9.20;;;16.10;99.90;;;;;;4989500;28;20451;-78
2021/07/19 02:02:51;;;;;;;10.30;9.40;;;16.10;99.90;;;;;;4990128;28;20485;-76
2021/07/19 02:05:21;;;;;;;9.50;8.60;;;16.10;99.90;;;;;;4990658;28;20483;-77
2021/07/19 02:07:50;;;;;;;8.70;7.97;;;16.00;99.90;;;;;;4990328;28;20450;-77
2021/07/19 02:10:18;;;;;;;11.53;9.30;;;16.00;99.90;;;;;;4984308;28;20451;-76
2021/07/19 02:12:55;;;;;;;11.27;8.87;;;16.10;99.90;;;;;;4986619;28;20472;-76
2021/07/19 02:15:22;;;;;;;10.20;9.20;;;16.20;99.90;;;;;;4989585;28;20554;-77
2021/07/19 02:17:51;;;;;;;9.97;8.97;;;16.20;99.90;;;;;;4982570;28;20443;-77
2021/07/19 02:20:20;;;;;;;9.17;8.27;;;16.30;99.90;;;;;;4983743;28;20461;-76
2021/07/19 02:22:48;;;;;;;9.60;8.70;;;16.40;99.00;;;;;;4989409;28;20479;-76
2021/07/19 02:25:16;;;;;;;9.03;8.23;;;16.50;98.80;;;;;;4992994;28;20469;-76
2021/07/19 02:27:45;;;;;;;9.30;8.30;;;16.60;98.20;;;;;;4989136;28;20455;-77
2021/07/19 02:30:15;;;;;;;10.70;8.97;;;16.60;98.10;;;;;;4987218;28;21055;-78
2021/07/19 02:32:45;;;;;;;8.43;7.63;;;16.60;97.30;;;;;;4985514;28;20468;-78
2021/07/19 02:35:14;;;;;;;13.00;8.17;;;16.60;96.90;;;;;;4986670;28;20464;-76
2021/07/19 02:37:44;;;;;;;11.43;8.17;;;16.60;96.80;;;;;;4991481;28;20727;-78
2021/07/19 02:40:13;;;;;;;8.17;7.47;;;16.60;96.70;;;;;;4988334;28;20481;-76
2021/07/19 02:42:43;;;;;;;10.87;7.83;;;16.60;96.30;;;;;;4990487;28;22412;-76
2021/07/19 02:45:14;;;;;;;8.27;7.50;;;16.60;96.50;;;;;;4989957;28;20450;-75
2021/07/19 02:47:42;;;;;;;8.47;7.73;;;16.60;97.20;;;;;;4988020;28;20444;-76
2021/07/19 02:50:10;;;;;;;9.30;8.37;;;16.50;97.50;;;;;;4988977;28;20944;-78
2021/07/19 02:52:38;;;;;;;9.50;8.60;;;16.40;97.50;;;;;;4988651;28;20475;-76
2021/07/19 02:55:08;;;;;;;9.43;7.90;;;16.30;98.20;;;;;;4986263;28;20449;-76
2021/07/19 02:57:36;;;;;;;8.50;7.70;;;16.30;98.40;;;;;;4988973;28;20471;-79
2021/07/19 03:00:06;;;;;;;9.23;8.00;;;16.30;98.40;;;;;;4983063;28;20554;-76
2021/07/19 03:02:32;;;;;;;9.13;8.33;;;16.20;98.90;;;;;;4993130;28;20443;-76
2021/07/19 03:05:02;;;;;;;9.47;8.57;;;16.20;99.20;;;;;;4989281;28;20458;-75
2021/07/19 03:07:31;;;;;;;9.17;8.37;;;16.20;99.90;;;;;;4987986;28;20450;-76
2021/07/19 03:10:01;;;;;;;8.90;8.10;;;16.10;99.90;;;;;;4983599;28;20487;-76
2021/07/19 03:12:33;;;;;;;9.33;8.43;;;16.10;99.20;;;;;;4985401;28;20764;-77
2021/07/19 03:15:00;;;;;;;8.80;8.00;;;16.10;99.80;;;;;;4989072;28;20977;-76
2021/07/19 03:17:28;;;;;;;8.83;8.00;;;16.00;99.90;;;;;;4985035;28;20517;-77
2021/07/19 03:19:58;;;;;;;10.80;9.27;;;16.00;99.90;;;;;;4987426;28;20457;-76
2021/07/19 03:22:27;;;;;;;10.43;9.33;;;16.00;99.90;;;;;;4986151;28;20957;-77
2021/07/19 03:24:55;;;;;;;10.10;9.10;;;15.90;99.90;;;;;;4987013;28;20450;-77
2021/07/19 03:27:23;;;;;;;9.90;9.00;;;15.90;99.90;;;;;;4987425;28;20447;-76
2021/07/19 03:29:52;;;;;;;10.73;9.60;;;15.80;99.90;;;;;;4986941;28;20451;-76
2021/07/19 03:32:20;;;;;;;9.70;8.30;;;15.70;99.90;;;;;;4987324;28;20443;-76
2021/07/19 03:34:47;;;;;;;11.03;9.10;;;15.60;99.90;;;;;;4986721;28;20456;-78
2021/07/19 03:37:16;;;;;;;8.90;8.10;;;15.60;99.90;;;;;;4989224;28;20449;-76
2021/07/19 03:39:44;;;;;;;10.87;9.20;;;15.60;99.90;;;;;;4983108;28;20461;-77
2021/07/19 03:42:13;;;;;;;12.40;10.30;;;15.50;99.90;;;;;;4989839;28;20485;-76
2021/07/19 03:44:42;;;;;;;10.60;9.50;;;15.50;99.90;;;;;;4990960;28;20497;-76
2021/07/19 03:47:12;;;;;;;10.97;9.10;;;15.60;99.90;;;;;;4986639;28;20451;-76
2021/07/19 03:49:40;;;;;;;10.17;9.13;;;15.60;99.90;;;;;;4987169;28;20445;-78
2021/07/19 03:52:07;;;;;;;10.77;9.67;;;15.60;99.90;;;;;;4989789;28;20455;-76
2021/07/19 03:54:34;;;;;;;11.37;10.00;;;15.60;99.90;;;;;;4990380;28;20470;-78
2021/07/19 03:57:02;;;;;;;10.57;9.53;;;15.60;99.90;;;;;;4988373;28;20494;-77
2021/07/19 03:59:30;;;;;;;9.83;8.87;;;15.60;99.90;;;;;;4989967;28;20457;-76
2021/07/19 04:01:58;;;;;;;11.03;8.87;;;15.70;99.90;;;;;;4989646;28;20483;-76
2021/07/19 04:04:39;;;;;;;10.80;8.57;;;15.80;99.90;;;;;;4979736;28;20454;-76
2021/07/19 04:07:06;;;;;;;9.33;8.40;;;16.00;99.60;;;;;;4989939;28;20455;-77
2021/07/19 04:09:33;;;;;;;9.80;8.83;;;16.10;99.00;;;;;;4988863;28;20481;-78
2021/07/19 04:12:01;;;;;;;9.50;8.50;;;16.10;97.70;;;;;;4988711;28;20544;-77
2021/07/19 04:14:28;;;;;;;9.20;8.30;;;16.20;97.80;;;;;;4986138;28;21080;-78
2021/07/19 04:16:55;;;;;;;10.90;9.80;;;16.30;96.80;;;;;;4992037;28;20450;-76
2021/07/19 04:19:22;;;;;;;10.47;9.00;;;16.40;95.60;;;;;;4992722;28;20555;-76
2021/07/19 04:21:53;;;;;;;9.60;8.70;;;16.40;95.30;;;;;;4994265;28;20448;-76
2021/07/19 04:24:20;;;;;;;13.13;9.27;;;16.40;95.20;;;;;;4990120;28;20446;-76
2021/07/19 04:26:47;;;;;;;9.67;8.70;;;16.50;94.90;;;;;;4991498;28;20470;-76
2021/07/19 04:29:14;;;;;;;14.10;10.47;;;16.50;94.80;;;;;;4991463;28;20518;-76
2021/07/19 04:31:43;;;;;;;11.83;8.40;;;16.50;94.10;;;;;;4993636;28;20452;-77
2021/07/19 04:34:10;;;;;;;12.97;9.60;;;16.60;94.10;;;;;;4989206;28;20469;-76
2021/07/19 04:36:37;;;;;;;12.00;9.30;;;16.70;93.80;;;;;;4990300;28;20451;-78
2021/07/19 04:39:05;;;;;;;9.17;8.20;;;16.70;93.40;;;;;;4991158;28;20450;-77
2021/07/19 04:41:33;;;;;;;8.50;7.63;;;16.80;93.30;;;;;;4991439;28;20533;-77
2021/07/19 04:43:59;;;;;;;13.43;9.80;;;17.00;92.50;;;;;;4987721;28;20462;-77
2021/07/19 04:46:28;;;;;;;10.13;9.13;;;17.10;91.60;;;;;;4992682;28;20449;-77
2021/07/19 04:48:55;;;;;;;11.83;8.13;;;17.20;91.60;;;;;;4990603;28;20454;-77
2021/07/19 04:51:22;;;;;;;10.50;8.20;;;17.50;91.00;;;;;;4991328;28;20462;-79
2021/07/19 04:53:51;;;;;;;8.20;7.40;;;17.60;90.60;;;;;;4990392;28;20529;-78
2021/07/19 04:56:20;;;;;;;10.40;9.10;;;17.60;90.60;;;;;;4987455;28;20594;-76
2021/07/19 04:58:52;;;;;;;8.50;7.70;;;17.70;90.10;;;;;;4992413;28;20455;-78
2021/07/19 05:01:20;;;;;;;9.73;7.80;;;17.80;90.10;;;;;;4992350;28;20467;-77
2021/07/19 05:03:50;;;;;;;10.40;8.10;;;18.10;89.90;;;;;;4993674;28;20475;-76
2021/07/19 05:06:18;;;;;;;9.97;7.17;;;18.70;88.10;;;;;;4998640;28;20440;-76
2021/07/19 05:08:48;;;;;;;7.87;7.17;;;19.60;85.00;;;;;;4992776;28;20456;-77
2021/07/19 05:11:15;;;;;;;9.47;7.43;;;20.00;82.80;;;;;;4994042;28;20475;-77
2021/07/19 05:13:45;;;;;;;8.60;7.60;;;20.20;80.00;;;;;;4990651;28;20472;-75
2021/07/19 05:16:12;;;;;;;7.67;7.00;;;20.60;78.90;;;;;;4983355;28;20449;-76
2021/07/19 05:18:40;;;;;;;10.83;6.73;;;21.00;78.20;;;;;;4989696;28;20471;-78
2021/07/19 05:21:07;;;;;;;7.40;6.70;;;21.40;76.20;;;;;;4990619;28;20448;-76
2021/07/19 05:23:35;;;;;;;11.10;6.40;;;21.60;74.90;;;;;;4985419;28;20537;-78
2021/07/19 05:26:02;;;;;;;6.50;5.90;;;21.30;74.80;;;;;;4986968;28;20467;-77
2021/07/19 05:28:29;;;;;;;10.67;5.87;;;21.40;74.80;;;;;;4982356;28;20783;-76
2021/07/19 05:30:57;;;;;;;6.43;5.83;;;21.60;74.20;;;;;;4987195;28;20461;-78
2021/07/19 05:33:25;;;;;;;7.00;5.90;;;21.50;73.90;;;;;;4989477;28;20486;-74
2021/07/19 05:35:52;;;;;;;7.03;6.27;;;22.10;72.60;;;;;;4990441;28;20478;-77
2021/07/19 05:38:19;;;;;;;6.80;6.20;;;22.30;72.00;;;;;;4987225;28;20445;-74
2021/07/19 05:40:47;;;;;;;7.97;6.50;;;22.50;71.90;;;;;;4988085;28;20980;-74
2021/07/19 05:43:13;;;;;;;7.57;6.87;;;22.50;71.30;;;;;;4989559;28;20448;-75
2021/07/19 05:45:40;;;;;;;8.00;7.20;;;22.80;70.90;;;;;;4989839;28;20492;-75
2021/07/19 05:48:11;;;;;;;7.27;6.47;;;22.20;70.90;;;;;;4990141;28;20892;-75
2021/07/19 05:50:38;;;;;;;8.77;7.73;;;22.00;71.20;;;;;;4987112;28;20488;-75
2021/07/19 05:53:06;;;;;;;7.47;6.87;;;21.80;71.50;;;;;;4993798;28;21050;-77
2021/07/19 05:55:34;;;;;;;7.93;7.23;;;21.80;71.20;;;;;;4989864;28;20450;-73
2021/07/19 05:58:01;;;;;;;7.33;6.70;;;22.40;71.40;;;;;;4986732;28;20541;-75
2021/07/19 06:00:28;;;;;;;7.03;6.33;;;23.00;70.00;;;;;;4985306;28;21009;-74
2021/07/19 06:02:55;;;;;;;7.60;6.90;;;23.40;69.30;;;;;;4983744;28;20448;-74
2021/07/19 06:05:23;;;;;;;9.33;6.40;;;23.30;68.80;;;;;;4988135;28;20451;-74
2021/07/19 06:07:50;;;;;;;7.27;6.63;;;23.30;68.60;;;;;;4985694;28;20535;-74
2021/07/19 06:10:17;;;;;;;9.50;6.90;;;23.20;68.40;;;;;;4987299;28;20452;-75
2021/07/19 06:12:44;;;;;;;6.60;6.10;;;23.20;68.10;;;;;;4986226;28;20460;-74
2021/07/19 06:15:13;;;;;;;7.80;7.00;;;22.80;68.60;;;;;;4988583;28;20465;-73
2021/07/19 06:17:40;;;;;;;10.10;7.47;;;22.30;69.50;;;;;;4986502;28;20453;-75
2021/07/19 06:20:09;;;;;;;8.80;7.97;;;21.90;70.60;;;;;;4981539;28;20442;-74
2021/07/19 06:22:39;;;;;;;10.40;8.30;;;21.60;71.50;;;;;;4980391;28;20453;-74
2021/07/19 06:25:07;;;;;;;8.43;7.70;;;21.60;72.00;;;;;;4986912;28;20991;-80
2021/07/19 06:27:34;;;;;;;11.27;7.60;;;21.50;72.20;;;;;;4987707;28;20506;-78
2021/07/19 06:30:01;;;;;;;9.20;8.30;;;21.50;72.30;;;;;;4988606;28;20515;-78
2021/07/19 06:32:28;;;;;;;8.30;7.50;;;21.50;72.50;;;;;;4988208;28;20802;-77
2021/07/19 06:34:55;;;;;;;8.30;7.50;;;21.40;72.90;;;;;;4991886;28;20464;-77
2021/07/19 06:37:21;;;;;;;8.87;6.90;;;21.50;73.00;;;;;;4991423;28;20444;-79
2021/07/19 06:39:49;;;;;;;9.00;7.13;;;21.50;72.50;;;;;;4990750;28;20841;-78
2021/07/19 06:42:17;;;;;;;9.63;7.33;;;21.50;73.10;;;;;;4989841;28;20458;-81
2021/07/19 06:44:43;;;;;;;10.53;7.73;;;21.40;73.30;;;;;;4986698;28;20943;-78
2021/07/19 06:47:10;;;;;;;9.73;7.53;;;21.50;73.00;;;;;;4983207;28;20449;-77
2021/07/19 06:49:37;;;;;;;11.03;7.23;;;21.40;73.10;;;;;;4984603;28;20468;-77
2021/07/19 06:52:04;;;;;;;7.30;6.70;;;21.50;72.70;;;;;;4978733;28;20478;-76
2021/07/19 06:54:31;;;;;;;8.63;7.17;;;21.50;72.90;;;;;;4986988;28;20464;-76
2021/07/19 06:56:59;;;;;;;8.10;7.27;;;21.40;72.90;;;;;;4986897;28;20478;-77
2021/07/19 06:59:26;;;;;;;9.63;7.23;;;21.40;72.90;;;;;;4983534;28;20824;-77
2021/07/19 07:01:53;;;;;;;8.03;6.97;;;21.50;73.10;;;;;;4987886;28;20555;-77
2021/07/19 07:04:19;;;;;;;9.23;7.20;;;21.40;73.00;;;;;;4984434;28;20493;-77
2021/07/19 07:06:46;;;;;;;7.47;6.70;;;21.50;73.60;;;;;;4986577;28;20555;-78
2021/07/19 07:09:13;;;;;;;6.93;6.27;;;21.60;73.00;;;;;;4983849;28;20450;-77
2021/07/19 07:11:40;;;;;;;7.60;6.87;;;21.50;72.10;;;;;;4990325;28;20951;-76
2021/07/19 07:14:08;;;;;;;7.80;6.30;;;21.50;72.20;;;;;;4994831;28;20474;-77
2021/07/19 07:16:36;;;;;;;6.83;6.20;;;21.60;71.90;;;;;;4984383;28;20444;-76
2021/07/19 07:19:03;;;;;;;6.80;6.20;;;21.80;72.50;;;;;;4983871;28;20462;-76
2021/07/19 07:21:31;;;;;;;5.70;5.30;;;21.80;71.90;;;;;;4986964;28;20466;-77
2021/07/19 07:23:58;;;;;;;6.87;6.17;;;21.90;71.60;;;;;;4985521;28;20459;-76
2021/07/19 07:26:26;;;;;;;5.93;5.53;;;22.20;70.10;;;;;;4982396;28;20535;-77
2021/07/19 07:28:53;;;;;;;5.60;5.10;;;22.30;70.00;;;;;;4986460;28;20448;-77
2021/07/19 07:31:25;;;;;;;5.77;5.23;;;22.20;68.70;;;;;;4984799;28;20460;-76
2021/07/19 07:33:52;;;;;;;6.23;5.37;;;22.30;69.20;;;;;;4983997;28;20584;-78
2021/07/19 07:36:19;;;;;;;6.47;4.73;;;22.30;68.20;;;;;;4996550;28;20470;-77
2021/07/19 07:38:46;;;;;;;5.60;5.07;;;22.30;68.30;;;;;;5013288;28;20454;-78
2021/07/19 07:41:12;;;;;;;5.57;5.07;;;22.30;68.00;;;;;;4984233;28;20483;-77
2021/07/19 07:43:39;;;;;;;6.70;5.23;;;22.40;67.80;;;;;;4986288;28;20483;-77
2021/07/19 07:46:06;;;;;;;5.77;5.17;;;22.50;67.60;;;;;;4979782;28;20468;-78
2021/07/19 07:48:35;;;;;;;5.90;5.37;;;22.40;67.50;;;;;;4985150;28;20464;-77
2021/07/19 07:51:02;;;;;;;5.70;4.90;;;22.40;67.40;;;;;;4989193;28;20476;-77
2021/07/19 07:53:29;;;;;;;9.87;5.33;;;22.40;66.90;;;;;;4988192;28;20444;-77
2021/07/19 07:55:57;;;;;;;5.37;4.80;;;22.60;67.00;;;;;;4992986;28;20483;-81
2021/07/19 07:58:24;;;;;;;5.13;4.70;;;22.80;67.10;;;;;;4988682;28;21018;-80
2021/07/19 08:00:52;;;;;;;5.53;5.10;;;23.00;66.60;;;;;;4990322;28;20511;-78
2021/07/19 08:03:18;;;;;;;5.07;4.67;;;22.80;65.90;;;;;;4992954;28;20444;-82
2021/07/19 08:05:47;;;;;;;7.00;4.87;;;22.90;66.00;;;;;;4996888;28;20479;-83
2021/07/19 08:08:14;;;;;;;5.57;4.60;;;23.10;66.80;;;;;;4998068;28;20947;-77
2021/07/19 08:10:41;;;;;;;6.90;5.33;;;23.20;66.40;;;;;;4988170;28;20456;-79
2021/07/19 08:13:08;;;;;;;6.80;4.83;;;23.50;65.40;;;;;;4987076;28;20563;-76
2021/07/19 08:15:37;;;;;;;8.83;4.77;;;23.70;65.10;;;;;;4987694;28;20468;-76
2021/07/19 08:18:04;;;;;;;5.60;4.90;;;23.90;64.80;;;;;;4990177;28;20452;-78
2021/07/19 08:20:31;;;;;;;5.90;4.63;;;23.60;63.70;;;;;;4992731;28;20452;-76
2021/07/19 08:22:59;;;;;;;8.77;5.33;;;23.90;64.10;;;;;;4991826;28;20934;-78
2021/07/19 08:25:26;;;;;;;4.40;4.00;;;24.30;64.70;;;;;;4992636;28;20955;-78
2021/07/19 08:27:53;;;;;;;6.03;4.57;;;24.40;63.40;;;;;;4990053;28;20455;-77
2021/07/19 08:30:19;;;;;;;4.87;4.47;;;24.60;62.20;;;;;;4987888;28;20450;-76
2021/07/19 08:32:46;;;;;;;7.93;4.13;;;24.60;63.10;;;;;;4991552;28;20444;-77
2021/07/19 08:35:14;;;;;;;6.43;3.93;;;24.70;62.00;;;;;;4988825;28;20479;-79
2021/07/19 08:37:45;;;;;;;6.87;3.87;;;24.60;61.30;;;;;;4989833;28;20452;-82
2021/07/19 08:40:20;;;;;;;5.47;4.73;;;24.50;61.60;;;;;;4992721;28;20448;-86
2021/07/19 08:42:48;;;;;;;5.23;4.83;;;24.90;62.10;;;;;;5008979;28;20447;-89
2021/07/19 08:45:15;;;;;;;5.53;3.77;;;25.10;61.60;;;;;;5011065;28;20488;-80
2021/07/19 08:47:44;;;;;;;5.60;4.33;;;25.00;61.20;;;;;;4999654;28;20452;-76
2021/07/19 08:50:14;;;;;;;5.47;4.27;;;25.30;61.10;;;;;;4995976;28;20455;-77
2021/07/19 08:52:42;;;;;;;8.83;4.60;;;25.60;60.60;;;;;;5001572;28;20448;-78
2021/07/19 08:55:11;;;;;;;6.63;4.53;;;25.60;60.10;;;;;;5013932;28;20468;-77
2021/07/19 08:57:40;;;;;;;7.80;4.97;;;25.40;60.90;;;;;;5000751;28;20480;-75
2021/07/19 09:00:10;;;;;;;4.60;4.10;;;25.50;60.90;;;;;;4993052;28;20432;-78
2021/07/19 09:02:37;;;;;;;5.00;4.60;;;25.30;61.20;;;;;;4995759;28;20446;-75
2021/07/19 09:05:04;;;;;;;7.20;5.30;;;25.30;62.10;;;;;;4992741;28;20964;-76
2021/07/19 09:07:32;;;;;;;4.50;4.10;;;25.20;61.40;;;;;;4992279;28;20469;-76
2021/07/19 09:10:00;;;;;;;4.87;4.53;;;24.90;62.00;;;;;;4984532;28;20457;-77
2021/07/19 09:12:32;;;;;;;5.07;4.57;;;24.80;61.60;;;;;;4982829;28;20464;-79
2021/07/19 09:15:01;;;;;;;6.53;5.57;;;24.90;61.80;;;;;;4990484;28;20504;-77
2021/07/19 09:17:30;;;;;;;6.07;5.53;;;25.10;61.90;;;;;;4988872;28;20455;-77
2021/07/19 09:19:57;;;;;;;5.17;4.77;;;25.30;62.30;;;;;;4990215;28;20452;-77
2021/07/19 09:22:26;;;;;;;5.20;4.70;;;25.50;61.70;;;;;;4988364;28;20477;-76
2021/07/19 09:24:53;;;;;;;5.50;5.00;;;25.40;61.50;;;;;;4989964;28;20507;-77
2021/07/19 09:27:22;;;;;;;5.03;4.20;;;25.40;61.00;;;;;;4991642;28;20445;-80
2021/07/19 09:29:50;;;;;;;5.83;5.33;;;25.40;61.40;;;;;;4988114;28;21485;-80
2021/07/19 09:32:18;;;;;;;6.50;5.77;;;25.30;61.50;;;;;;4988275;28;20485;-77
2021/07/19 09:34:44;;;;;;;5.70;5.30;;;25.40;61.90;;;;;;4989661;28;21258;-81
2021/07/19 09:37:13;;;;;;;6.20;5.60;;;25.40;61.80;;;;;;4989428;28;20990;-75
2021/07/19 09:39:43;;;;;;;7.07;5.17;;;25.20;62.00;;;;;;4989473;28;20451;-77
2021/07/19 09:42:12;;;;;;;7.23;5.43;;;25.20;61.60;;;;;;4987383;28;20967;-81
2021/07/19 09:44:40;;;;;;;5.93;5.40;;;25.30;61.40;;;;;;4993070;28;20448;-80
2021/07/19 09:47:09;;;;;;;6.13;5.07;;;25.20;60.90;;;;;;4993434;28;20812;-78
2021/07/19 09:49:37;;;;;;;5.57;5.07;;;25.40;60.50;;;;;;4993426;28;20458;-76
2021/07/19 09:52:06;;;;;;;5.63;5.13;;;25.40;59.80;;;;;;4989153;28;20444;-76
2021/07/19 09:54:38;;;;;;;4.90;4.50;;;26.00;59.60;;;;;;4992077;28;20444;-76
2021/07/19 09:57:05;;;;;;;5.60;4.90;;;26.20;58.90;;;;;;4989700;28;21019;-75
2021/07/19 09:59:33;;;;;;;5.47;4.97;;;26.00;59.30;;;;;;4991964;28;20440;-75
2021/07/19 10:02:01;;;;;;;6.40;4.60;;;26.00;59.10;;;;;;4992046;28;20452;-75
2021/07/19 10:04:27;;;;;;;7.03;5.70;;;25.80;59.30;;;;;;4991952;28;20768;-75
2021/07/19 10:06:58;;;;;;;6.30;5.70;;;25.60;59.30;;;;;;4988657;28;20451;-77
2021/07/19 10:09:25;;;;;;;8.23;5.37;;;25.30;59.80;;;;;;4986894;28;20483;-74
2021/07/19 10:11:54;;;;;;;8.40;5.70;;;25.60;59.70;;;;;;4985792;28;20461;-74
2021/07/19 10:14:29;;;;;;;5.80;5.30;;;25.90;58.60;;;;;;4986609;28;20984;-73
2021/07/19 10:16:58;;;;;;;8.33;6.57;;;26.00;58.70;;;;;;4990309;28;20531;-77
2021/07/19 10:19:27;;;;;;;7.27;6.27;;;26.10;59.60;;;;;;4987669;28;20464;-74
2021/07/19 10:21:55;;;;;;;9.00;7.43;;;25.90;60.00;;;;;;4986061;28;20986;-74
2021/07/19 10:24:23;;;;;;;7.50;6.77;;;25.40;61.00;;;;;;4984751;28;20455;-75
2021/07/19 10:26:51;;;;;;;11.20;7.50;;;24.90;61.30;;;;;;4987644;28;20445;-78
2021/07/19 10:29:18;;;;;;;9.20;6.97;;;25.00;61.50;;;;;;4987341;28;20846;-75
2021/07/19 10:31:46;;;;;;;7.53;6.63;;;25.10;61.10;;;;;;4993700;28;21146;-76
2021/07/19 10:34:15;;;;;;;19.67;8.10;;;25.20;60.20;;;;;;4999792;28;20443;-74
2021/07/19 10:36:49;;;;;;;8.73;6.10;;;25.10;60.20;;;;;;4988737;28;20543;-74
2021/07/19 10:39:22;;;;;;;8.40;6.13;;;25.40;60.30;;;;;;5001423;28;20545;-75
2021/07/19 10:42:00;;;;;;;12.40;5.70;;;25.70;58.80;;;;;;4990368;28;20451;-74
2021/07/19 10:44:30;;;;;;;6.63;5.80;;;26.00;58.60;;;;;;4981490;28;20455;-77
2021/07/19 10:46:58;;;;;;;5.63;5.23;;;26.10;58.20;;;;;;4983647;28;20448;-75
2021/07/19 10:49:31;;;;;;;6.63;5.50;;;25.80;58.60;;;;;;4978645;28;20450;-75
2021/07/19 10:52:09;;;;;;;5.93;5.13;;;25.80;59.10;;;;;;4991385;28;20843;-75
2021/07/19 10:54:48;;;;;;;6.67;5.70;;;25.80;58.30;;;;;;4982913;28;20459;-80
2021/07/19 10:57:17;;;;;;;6.00;5.27;;;25.90;59.30;;;;;;4988680;28;20472;-76
2021/07/19 10:59:45;;;;;;;6.27;5.67;;;25.60;59.40;;;;;;4983278;28;20880;-75
2021/07/19 11:02:27;;;;;;;7.27;5.37;;;25.90;59.20;;;;;;4986174;28;20462;-75
2021/07/19 11:04:55;;;;;;;6.90;5.80;;;25.80;58.80;;;;;;4981740;28;20970;-79
2021/07/19 11:07:23;;;;;;;4.53;4.10;;;25.80;58.90;;;;;;4983494;28;20539;-76
2021/07/19 11:09:52;;;;;;;6.00;4.40;;;26.00;56.90;;;;;;4985158;28;20452;-76
2021/07/19 11:12:20;;;;;;;5.17;4.60;;;26.10;56.40;;;;;;4986903;28;20464;-77
2021/07/19 11:14:49;;;;;;;7.07;5.17;;;26.10;57.40;;;;;;4982806;28;20452;-75
2021/07/19 11:17:18;;;;;;;15.43;5.60;;;26.40;56.90;;;;;;4985319;28;20449;-76
2021/07/19 11:19:46;;;;;;;6.00;5.23;;;26.30;58.00;;;;;;4985942;28;20480;-77
2021/07/19 11:22:14;;;;;;;6.60;4.83;;;26.30;57.60;;;;;;4986953;28;20483;-75
2021/07/19 11:24:43;;;;;;;5.77;5.20;;;26.20;57.30;;;;;;4983253;28;20814;-77
2021/07/19 11:27:12;;;;;;;5.60;5.10;;;25.90;57.10;;;;;;4987430;28;20460;-75
2021/07/19 11:29:41;;;;;;;4.90;4.40;;;25.80;57.30;;;;;;4987666;28;20954;-75
2021/07/19 11:32:17;;;;;;;5.70;5.13;;;25.90;57.00;;;;;;4985711;28;20446;-77
2021/07/19 11:34:45;;;;;;;7.00;5.20;;;25.80;58.30;;;;;;4981135;28;20454;-76
2021/07/19 11:37:12;;;;;;;8.33;5.20;;;25.80;58.70;;;;;;4985387;28;20528;-75
2021/07/19 11:39:47;;;;;;;6.17;5.57;;;25.90;58.00;;;;;;4983467;28;20463;-77
2021/07/19 11:42:28;;;;;;;5.43;4.80;;;25.80;57.40;;;;;;4984071;28;20543;-76
2021/07/19 11:45:02;;;;;;;7.00;6.00;;;25.90;57.30;;;;;;4986488;28;20505;-79
2021/07/19 11:47:30;;;;;;;6.67;6.03;;;26.10;58.00;;;;;;4984794;28;20435;-77
2021/07/19 11:50:05;;;;;;;8.97;5.80;;;26.30;57.30;;;;;;4985529;28;20460;-79
2021/07/19 11:52:32;;;;;;;6.00;5.50;;;26.40;57.40;;;;;;4990372;28;20769;-80
2021/07/19 11:55:01;;;;;;;6.37;5.60;;;26.40;57.40;;;;;;5007399;28;20483;-78
2021/07/19 11:57:40;;;;;;;6.73;6.03;;;26.80;57.70;;;;;;4996068;28;20514;-76
2021/07/19 12:00:08;;;;;;;7.50;6.47;;;26.50;57.90;;;;;;4988432;28;20460;-79
2021/07/19 12:02:35;;;;;;;7.27;6.60;;;26.10;57.50;;;;;;4994192;28;20448;-81
2021/07/19 12:05:03;;;;;;;7.43;6.47;;;25.90;58.30;;;;;;5010839;28;20537;-77
2021/07/19 12:07:30;;;;;;;9.03;6.60;;;25.80;57.40;;;;;;5007810;28;20997;-79
2021/07/19 12:10:01;;;;;;;7.10;6.43;;;25.80;57.60;;;;;;4990581;28;20466;-79
2021/07/19 12:12:29;;;;;;;7.70;6.87;;;25.60;57.40;;;;;;4988334;28;20451;-77
2021/07/19 12:14:57;;;;;;;7.17;6.50;;;25.70;57.70;;;;;;4979162;28;20464;-78
2021/07/19 12:17:28;;;;;;;7.37;6.67;;;25.90;57.10;;;;;;4988210;28;20503;-78
2021/07/19 12:19:55;;;;;;;10.10;8.40;;;25.90;56.60;;;;;;4988941;28;20935;-78
2021/07/19 12:22:22;;;;;;;8.63;7.80;;;25.90;55.70;;;;;;4989441;28;20476;-83
2021/07/19 12:24:52;;;;;;;8.23;7.13;;;26.00;56.60;;;;;;4987670;28;20537;-77
2021/07/19 12:27:19;;;;;;;14.20;8.17;;;25.90;55.80;;;;;;4987744;28;20444;-82
2021/07/19 12:29:50;;;;;;;8.57;7.77;;;25.80;55.60;;;;;;4986785;28;20449;-81
2021/07/19 12:32:18;;;;;;;9.00;7.47;;;25.80;56.30;;;;;;4984825;28;20826;-76
2021/07/19 12:34:45;;;;;;;8.50;7.57;;;25.90;57.50;;;;;;4991052;28;20448;-77
2021/07/19 12:37:13;;;;;;;8.17;7.37;;;25.80;56.90;;;;;;4998865;28;20489;-78
2021/07/19 12:39:42;;;;;;;8.37;7.20;;;25.70;57.10;;;;;;4998417;28;21090;-76
2021/07/19 12:42:11;;;;;;;9.20;8.27;;;25.90;56.80;;;;;;4997118;28;20451;-76
2021/07/19 12:44:39;;;;;;;7.73;7.03;;;26.10;56.60;;;;;;4994664;28;20499;-77
2021/07/19 12:47:08;;;;;;;9.33;7.50;;;26.00;55.40;;;;;;4996030;28;22548;-78
2021/07/19 12:49:36;;;;;;;8.63;7.73;;;26.10;55.10;;;;;;4994622;28;20456;-76
2021/07/19 12:52:05;;;;;;;7.90;7.20;;;26.10;54.30;;;;;;4996213;28;20534;-77